Dallesport, Washington
Current Conditions -  °F | °C
As of 3:53 AM on Monday 22 Dec 2014 (Local Time) from KDLS Reporting Station
Overcast Overcast  
Wind Chill: 50°   Ceiling: 3000
Heat Index: 50°   Visibility: 10mi
Dew Point: 45°   Wind: 0mph
Humidity: 83%   Direction: NA
Pressure: 30.19"   Gusts: NA
Location:  45.62°N, 121.17°W
Report Text: KDLS 221153Z AUTO 00000KT 10SM SCT021 BKN030 OVC060 10/07 A3019 RMK AO2 SLP223 70020 T01000072 10111 20094 53019
Loading
Personal Weather Stations






























Interactive Weather Map New forecast layout! Learn more

10-Day Weather Forecast

Advertisements
Track Severe Weather on mobile